Terminal Aerodrome Forecast
Issued by NWS

Home | Current Version | Previous Version | Text Only | Print | Product List | Glossary On
Versions: 1 2 3 4 5 6 7 8 9 10 11 12 13 14 15 16 17 18 19 20 21 22 23 24 25 26 27 28 29 30 31 32 33
000
FTUS45 KREV 041736
TAFRNO
TAF
KRNO 041736Z 0418/0518 VRB04KT P6SM SCT200
     FM041900 20005KT P6SM FEW090 SCT140
     FM042200 23008KT P6SM VCTS SCT090CB BKN140
     FM050100 32010KT P6SM VCSH BKN080 BKN120
     FM050600 VRB04KT P6SM SCT120 BKN200=

USA.gov is the U.S. government's official web portal to all federal, state and local government web resources and services.